sensor_id;sensor_type;location;lat;lon;timestamp;pressure;altitude;pressure_sealevel;temperature;humidity
59043;BME280;44826;51.596;5.624;2023-02-16T00:00:46;102354.09;;;4.54;79.26
59043;BME280;44826;51.596;5.624;2023-02-16T00:03:20;102344.59;;;4.51;79.45
59043;BME280;44826;51.596;5.624;2023-02-16T00:05:47;102341.97;;;4.50;79.91
59043;BME280;44826;51.596;5.624;2023-02-16T00:08:12;102343.63;;;4.48;79.69
59043;BME280;44826;51.596;5.624;2023-02-16T00:10:38;102344.47;;;4.47;79.50
59043;BME280;44826;51.596;5.624;2023-02-16T00:13:33;102338.47;;;4.48;79.31
59043;BME280;44826;51.596;5.624;2023-02-16T00:16:19;102324.69;;;4.46;79.68
59043;BME280;44826;51.596;5.624;2023-02-16T00:18:46;102338.41;;;4.45;79.86
59043;BME280;44826;51.596;5.624;2023-02-16T00:21:11;102338.31;;;4.40;80.02
59043;BME280;44826;51.596;5.624;2023-02-16T00:23:37;102338.28;;;4.38;79.76
59043;BME280;44826;51.596;5.624;2023-02-16T00:26:03;102338.22;;;4.37;80.05
59043;BME280;44826;51.596;5.624;2023-02-16T00:28:29;102328.72;;;4.34;79.78
59043;BME280;44826;51.596;5.624;2023-02-16T00:30:54;102339.88;;;4.33;79.93
59043;BME280;44826;51.596;5.624;2023-02-16T00:33:20;102338.13;;;4.32;79.98
59043;BME280;44826;51.596;5.624;2023-02-16T00:35:46;102331.19;;;4.30;80.04
59043;BME280;44826;51.596;5.624;2023-02-16T00:38:12;102332.94;;;4.31;79.61
59043;BME280;44826;51.596;5.624;2023-02-16T00:40:38;102340.63;;;4.29;80.08
59043;BME280;44826;51.596;5.624;2023-02-16T00:43:04;102338.88;;;4.28;79.64
59043;BME280;44826;51.596;5.624;2023-02-16T00:45:31;102340.59;;;4.28;80.09
59043;BME280;44826;51.596;5.624;2023-02-16T00:47:58;102338.84;;;4.27;80.04
59043;BME280;44826;51.596;5.624;2023-02-16T00:50:30;102347.41;;;4.25;80.15
59043;BME280;44826;51.596;5.624;2023-02-16T00:52:56;102340.47;;;4.23;79.89
59043;BME280;44826;51.596;5.624;2023-02-16T00:55:28;102333.59;;;4.22;80.23
59043;BME280;44826;51.596;5.624;2023-02-16T01:00:37;102337.81;;;4.20;80.02
59043;BME280;44826;51.596;5.624;2023-02-16T01:03:10;102341.22;;;4.19;80.09
59043;BME280;44826;51.596;5.624;2023-02-16T01:05:36;102330.06;;;4.18;80.11
59043;BME280;44826;51.596;5.624;2023-02-16T01:08:08;102337.75;;;4.17;80.28
59043;BME280;44826;51.596;5.624;2023-02-16T01:10:52;102336.06;;;4.17;80.10
59043;BME280;44826;51.596;5.624;2023-02-16T01:13:28;102330.84;;;4.16;80.29
59043;BME280;44826;51.596;5.624;2023-02-16T01:15:54;102324.78;;;4.14;80.45
59043;BME280;44826;51.596;5.624;2023-02-16T01:18:20;102323.88;;;4.12;80.02
59043;BME280;44826;51.596;5.624;2023-02-16T01:20:46;102322.13;;;4.10;80.26
59043;BME280;44826;51.596;5.624;2023-02-16T01:23:12;102322.06;;;4.07;80.23
59043;BME280;44826;51.596;5.624;2023-02-16T01:25:37;102321.19;;;4.07;79.95
59043;BME280;44826;51.596;5.624;2023-02-16T01:28:15;102322.00;;;4.04;80.58
59043;BME280;44826;51.596;5.624;2023-02-16T01:30:41;102315.09;;;4.03;80.26
59043;BME280;44826;51.596;5.624;2023-02-16T01:33:07;102321.91;;;4.01;80.18
59043;BME280;44826;51.596;5.624;2023-02-16T01:35:33;102316.66;;;3.98;80.55
59043;BME280;44826;51.596;5.624;2023-02-16T01:37:58;102315.81;;;3.98;80.47
59043;BME280;44826;51.596;5.624;2023-02-16T01:43:20;102308.84;;;3.93;80.99
59043;BME280;44826;51.596;5.624;2023-02-16T01:46:03;102301.91;;;3.91;80.33
59043;BME280;44826;51.596;5.624;2023-02-16T01:48:31;102295.84;;;3.89;80.40
59043;BME280;44826;51.596;5.624;2023-02-16T01:51:10;102285.56;;;3.89;80.60
59043;BME280;44826;51.596;5.624;2023-02-16T01:53:40;102285.56;;;3.89;80.81
59043;BME280;44826;51.596;5.624;2023-02-16T01:56:17;102278.66;;;3.88;80.73
59043;BME280;44826;51.596;5.624;2023-02-16T01:58:48;102281.16;;;3.85;80.79
59043;BME280;44826;51.596;5.624;2023-02-16T02:01:35;102266.53;;;3.84;80.60
59043;BME280;44826;51.596;5.624;2023-02-16T02:04:08;102273.34;;;3.82;80.72
59043;BME280;44826;51.596;5.624;2023-02-16T02:06:52;102270.69;;;3.78;80.76
59043;BME280;44826;51.596;5.624;2023-02-16T02:09:24;102276.66;;;3.77;80.96
59043;BME280;44826;51.596;5.624;2023-02-16T02:12:04;102274.88;;;3.75;80.83
59043;BME280;44826;51.596;5.624;2023-02-16T02:14:36;102280.00;;;3.73;81.53
59043;BME280;44826;51.596;5.624;2023-02-16T02:17:08;102282.53;;;3.72;81.36
59043;BME280;44826;51.596;5.624;2023-02-16T02:19:50;102281.63;;;3.70;81.25
59043;BME280;44826;51.596;5.624;2023-02-16T02:28:41;102269.47;;;3.64;81.16
59043;BME280;44826;51.596;5.624;2023-02-16T02:36:41;102275.34;;;3.60;81.55
59043;BME280;44826;51.596;5.624;2023-02-16T02:42:00;102266.78;;;3.59;81.38
59043;BME280;44826;51.596;5.624;2023-02-16T02:44:28;102254.75;;;3.58;81.81
59043;BME280;44826;51.596;5.624;2023-02-16T02:46:55;102261.53;;;3.56;81.50
59043;BME280;44826;51.596;5.624;2023-02-16T02:49:21;102258.13;;;3.56;81.95
59043;BME280;44826;51.596;5.624;2023-02-16T02:51:47;102252.91;;;3.54;81.99
59043;BME280;44826;51.596;5.624;2023-02-16T02:54:19;102245.19;;;3.54;82.13
59043;BME280;44826;51.596;5.624;2023-02-16T02:57:29;102242.59;;;3.53;82.21
59043;BME280;44826;51.596;5.624;2023-02-16T03:00:18;102236.63;;;3.54;82.13
59043;BME280;44826;51.596;5.624;2023-02-16T03:05:43;102222.91;;;3.55;82.12
59043;BME280;44826;51.596;5.624;2023-02-16T03:08:11;102228.00;;;3.53;81.82
59043;BME280;44826;51.596;5.624;2023-02-16T03:10:44;102231.38;;;3.51;82.23
59043;BME280;44826;51.596;5.624;2023-02-16T03:13:34;102228.84;;;3.52;81.92
59043;BME280;44826;51.596;5.624;2023-02-16T03:16:12;102233.13;;;3.52;81.75
59043;BME280;44826;51.596;5.624;2023-02-16T03:18:40;102229.63;;;3.49;82.13
59043;BME280;44826;51.596;5.624;2023-02-16T03:21:26;102238.19;;;3.48;81.91
59043;BME280;44826;51.596;5.624;2023-02-16T03:24:15;102232.13;;;3.46;82.07
59043;BME280;44826;51.596;5.624;2023-02-16T03:27:02;102238.09;;;3.45;81.80
59043;BME280;44826;51.596;5.624;2023-02-16T03:29:48;102235.44;;;3.42;81.84
59043;BME280;44826;51.596;5.624;2023-02-16T03:32:16;102236.28;;;3.41;81.66
59043;BME280;44826;51.596;5.624;2023-02-16T03:34:42;102229.41;;;3.40;82.16
59043;BME280;44826;51.596;5.624;2023-02-16T03:37:07;102221.59;;;3.37;81.82
59043;BME280;44826;51.596;5.624;2023-02-16T03:39:33;102224.94;;;3.34;82.38
59043;BME280;44826;51.596;5.624;2023-02-16T03:42:19;102226.63;;;3.32;82.23
59043;BME280;44826;51.596;5.624;2023-02-16T03:44:46;102223.09;;;3.29;82.57
59043;BME280;44826;51.596;5.624;2023-02-16T03:47:11;102224.81;;;3.28;82.41
59043;BME280;44826;51.596;5.624;2023-02-16T03:49:36;102218.78;;;3.28;82.34
59043;BME280;44826;51.596;5.624;2023-02-16T03:52:01;102222.16;;;3.27;82.26
59043;BME280;44826;51.596;5.624;2023-02-16T03:54:27;102220.44;;;3.26;82.20
59043;BME280;44826;51.596;5.624;2023-02-16T03:56:52;102209.31;;;3.27;82.68
59043;BME280;44826;51.596;5.624;2023-02-16T03:59:17;102219.66;;;3.28;82.65
59043;BME280;44826;51.596;5.624;2023-02-16T04:01:44;102213.63;;;3.28;83.07
59043;BME280;44826;51.596;5.624;2023-02-16T04:04:09;102216.25;;;3.29;82.79
59043;BME280;44826;51.596;5.624;2023-02-16T04:06:34;102217.13;;;3.30;82.90
59043;BME280;44826;51.596;5.624;2023-02-16T04:09:00;102224.91;;;3.33;82.83
59043;BME280;44826;51.596;5.624;2023-02-16T04:11:25;102224.09;;;3.34;82.57
59043;BME280;44826;51.596;5.624;2023-02-16T04:14:09;102229.31;;;3.37;82.78
59043;BME280;44826;51.596;5.624;2023-02-16T04:16:34;102230.25;;;3.39;82.22
59043;BME280;44826;51.596;5.624;2023-02-16T04:18:59;102238.81;;;3.40;82.26
59043;BME280;44826;51.596;5.624;2023-02-16T04:21:24;102231.97;;;3.40;82.75
59043;BME280;44826;51.596;5.624;2023-02-16T04:23:50;102231.97;;;3.40;82.47
59043;BME280;44826;51.596;5.624;2023-02-16T04:26:15;102238.78;;;3.38;82.74
59043;BME280;44826;51.596;5.624;2023-02-16T04:28:40;102234.47;;;3.37;82.92
59043;BME280;44826;51.596;5.624;2023-02-16T04:31:05;102227.59;;;3.38;82.30
59043;BME280;44826;51.596;5.624;2023-02-16T04:33:31;102220.78;;;3.38;82.38
59043;BME280;44826;51.596;5.624;2023-02-16T04:35:56;102227.56;;;3.36;82.39
59043;BME280;44826;51.596;5.624;2023-02-16T04:38:21;102226.69;;;3.36;82.39
59043;BME280;44826;51.596;5.624;2023-02-16T04:40:46;102223.19;;;3.33;82.65
59043;BME280;44826;51.596;5.624;2023-02-16T04:43:12;102226.63;;;3.32;82.63
59043;BME280;44826;51.596;5.624;2023-02-16T04:45:37;102227.50;;;3.33;82.80
59043;BME280;44826;51.596;5.624;2023-02-16T04:48:03;102223.19;;;3.32;82.89
59043;BME280;44826;51.596;5.624;2023-02-16T04:50:28;102248.91;;;3.32;82.88
59043;BME280;44826;51.596;5.624;2023-02-16T04:52:53;102242.94;;;3.33;83.08
59043;BME280;44826;51.596;5.624;2023-02-16T04:55:19;102242.94;;;3.33;83.20
59043;BME280;44826;51.596;5.624;2023-02-16T04:57:44;102236.06;;;3.33;82.95
59043;BME280;44826;51.596;5.624;2023-02-16T05:00:09;102219.78;;;3.33;83.03
59043;BME280;44826;51.596;5.624;2023-02-16T05:02:36;102208.63;;;3.32;83.51
59043;BME280;44826;51.596;5.624;2023-02-16T05:05:01;102229.22;;;3.34;83.32
59043;BME280;44826;51.596;5.624;2023-02-16T05:07:27;102240.44;;;3.36;83.68
59043;BME280;44826;51.596;5.624;2023-02-16T05:09:52;102244.75;;;3.37;83.53
59043;BME280;44826;51.596;5.624;2023-02-16T05:12:17;102234.56;;;3.40;83.33
59043;BME280;44826;51.596;5.624;2023-02-16T05:15:01;102231.22;;;3.44;83.16
59043;BME280;44826;51.596;5.624;2023-02-16T05:17:26;102226.94;;;3.45;83.31
59043;BME280;44826;51.596;5.624;2023-02-16T05:19:54;102231.25;;;3.46;83.71
59043;BME280;44826;51.596;5.624;2023-02-16T05:22:20;102227.88;;;3.47;83.60
59043;BME280;44826;51.596;5.624;2023-02-16T05:24:45;102215.03;;;3.48;83.38
59043;BME280;44826;51.596;5.624;2023-02-16T05:27:13;102215.00;;;3.47;83.84
59043;BME280;44826;51.596;5.624;2023-02-16T05:29:38;102218.44;;;3.47;84.13
59043;BME280;44826;51.596;5.624;2023-02-16T05:32:04;102209.94;;;3.50;84.06
59043;BME280;44826;51.596;5.624;2023-02-16T05:34:29;102210.78;;;3.51;84.09
59043;BME280;44826;51.596;5.624;2023-02-16T05:36:54;102221.13;;;3.52;84.22
59043;BME280;44826;51.596;5.624;2023-02-16T05:39:20;102222.03;;;3.54;84.20
59043;BME280;44826;51.596;5.624;2023-02-16T05:41:46;102222.13;;;3.57;84.05
59043;BME280;44826;51.596;5.624;2023-02-16T05:44:11;102204.13;;;3.59;83.95
59043;BME280;44826;51.596;5.624;2023-02-16T05:46:38;102208.53;;;3.63;84.02
59043;BME280;44826;51.596;5.624;2023-02-16T05:49:05;102219.72;;;3.63;83.98
59043;BME280;44826;51.596;5.624;2023-02-16T05:51:31;102232.59;;;3.65;83.91
59043;BME280;44826;51.596;5.624;2023-02-16T05:53:57;102210.31;;;3.66;83.88
59043;BME280;44826;51.596;5.624;2023-02-16T05:56:23;102197.47;;;3.66;84.08
59043;BME280;44826;51.596;5.624;2023-02-16T05:58:48;102206.88;;;3.65;84.43
59043;BME280;44826;51.596;5.624;2023-02-16T06:01:14;102194.00;;;3.65;84.63
59043;BME280;44826;51.596;5.624;2023-02-16T06:03:39;102199.22;;;3.68;84.46
59043;BME280;44826;51.596;5.624;2023-02-16T06:06:05;102194.09;;;3.68;84.65
59043;BME280;44826;51.596;5.624;2023-02-16T06:08:31;102191.53;;;3.70;84.53
59043;BME280;44826;51.596;5.624;2023-02-16T06:10:57;102203.56;;;3.71;84.72
59043;BME280;44826;51.596;5.624;2023-02-16T06:13:23;102204.47;;;3.71;84.63
59043;BME280;44826;51.596;5.624;2023-02-16T06:15:53;102206.19;;;3.72;84.60
59043;BME280;44826;51.596;5.624;2023-02-16T06:18:19;102193.34;;;3.74;84.69
59043;BME280;44826;51.596;5.624;2023-02-16T06:20:44;102203.72;;;3.75;84.59
59043;BME280;44826;51.596;5.624;2023-02-16T06:23:11;102202.84;;;3.76;84.20
59043;BME280;44826;51.596;5.624;2023-02-16T06:25:39;102196.00;;;3.75;84.50
59043;BME280;44826;51.596;5.624;2023-02-16T06:28:05;102203.72;;;3.77;84.69
59043;BME280;44826;51.596;5.624;2023-02-16T06:30:30;102198.59;;;3.78;84.56
59043;BME280;44826;51.596;5.624;2023-02-16T06:32:55;102196.03;;;3.78;84.83
59043;BME280;44826;51.596;5.624;2023-02-16T06:35:21;102187.47;;;3.79;85.25
59043;BME280;44826;51.596;5.624;2023-02-16T06:37:46;102203.81;;;3.80;84.69
59043;BME280;44826;51.596;5.624;2023-02-16T06:40:12;102206.41;;;3.82;84.82
59043;BME280;44826;51.596;5.624;2023-02-16T06:42:41;102204.75;;;3.84;84.55
59043;BME280;44826;51.596;5.624;2023-02-16T06:45:07;102214.25;;;3.86;84.62
59043;BME280;44826;51.596;5.624;2023-02-16T06:47:34;102210.81;;;3.86;85.01
59043;BME280;44826;51.596;5.624;2023-02-16T06:49:59;102228.91;;;3.89;85.13
59043;BME280;44826;51.596;5.624;2023-02-16T06:52:24;102236.72;;;3.92;84.63
59043;BME280;44826;51.596;5.624;2023-02-16T06:54:50;102229.94;;;3.95;84.84
59043;BME280;44826;51.596;5.624;2023-02-16T06:57:15;102226.53;;;3.98;84.74
59043;BME280;44826;51.596;5.624;2023-02-16T06:59:40;102220.56;;;3.99;84.95
59043;BME280;44826;51.596;5.624;2023-02-16T07:02:06;102223.19;;;4.01;84.69
59043;BME280;44826;51.596;5.624;2023-02-16T07:04:31;102223.19;;;4.01;84.81
59043;BME280;44826;51.596;5.624;2023-02-16T07:06:56;102224.06;;;4.01;85.29
59043;BME280;44826;51.596;5.624;2023-02-16T07:09:22;102225.78;;;4.02;84.87
59043;BME280;44826;51.596;5.624;2023-02-16T07:11:47;102232.69;;;4.03;85.33
59043;BME280;44826;51.596;5.624;2023-02-16T07:14:13;102235.28;;;4.05;85.24
59043;BME280;44826;51.596;5.624;2023-02-16T07:16:38;102234.50;;;4.07;85.61
59043;BME280;44826;51.596;5.624;2023-02-16T07:19:04;102240.56;;;4.09;85.13
59043;BME280;44826;51.596;5.624;2023-02-16T07:21:29;102234.56;;;4.10;85.33
59043;BME280;44826;51.596;5.624;2023-02-16T07:23:55;102243.19;;;4.13;85.30
59043;BME280;44826;51.596;5.624;2023-02-16T07:26:20;102246.69;;;4.15;85.42
59043;BME280;44826;51.596;5.624;2023-02-16T07:28:45;102243.34;;;4.19;85.46
59043;BME280;44826;51.596;5.624;2023-02-16T07:31:13;102239.09;;;4.21;85.69
59043;BME280;44826;51.596;5.624;2023-02-16T07:33:39;102231.47;;;4.24;85.55
59043;BME280;44826;51.596;5.624;2023-02-16T07:36:05;102234.97;;;4.28;85.16
59043;BME280;44826;51.596;5.624;2023-02-16T07:38:31;102232.47;;;4.31;85.56
59043;BME280;44826;51.596;5.624;2023-02-16T07:40:57;102228.25;;;4.34;85.47
59043;BME280;44826;51.596;5.624;2023-02-16T07:43:23;102233.53;;;4.40;85.04
59043;BME280;44826;51.596;5.624;2023-02-16T07:45:48;102235.31;;;4.45;85.52
59043;BME280;44826;51.596;5.624;2023-02-16T07:48:14;102233.72;;;4.50;85.35
59043;BME280;44826;51.596;5.624;2023-02-16T07:50:39;102232.13;;;4.55;85.32
59043;BME280;44826;51.596;5.624;2023-02-16T07:53:06;102234.78;;;4.58;85.58
59043;BME280;44826;51.596;5.624;2023-02-16T07:55:31;102240.03;;;4.63;85.14
59043;BME280;44826;51.596;5.624;2023-02-16T07:57:57;102239.22;;;4.65;85.39
59043;BME280;44826;51.596;5.624;2023-02-16T08:00:22;102239.28;;;4.68;84.75
59043;BME280;44826;51.596;5.624;2023-02-16T08:02:48;102245.38;;;4.72;85.36
59043;BME280;44826;51.596;5.624;2023-02-16T08:05:13;102243.78;;;4.77;85.17
59043;BME280;44826;51.596;5.624;2023-02-16T08:07:38;102244.69;;;4.81;85.43
59043;BME280;44826;51.596;5.624;2023-02-16T08:10:05;102257.72;;;4.85;84.89
59043;BME280;44826;51.596;5.624;2023-02-16T08:12:31;102250.06;;;4.90;85.08
59043;BME280;44826;51.596;5.624;2023-02-16T08:14:56;102239.81;;;4.93;85.22
59043;BME280;44826;51.596;5.624;2023-02-16T08:17:21;102236.44;;;4.97;85.74
59043;BME280;44826;51.596;5.624;2023-02-16T08:19:47;102233.09;;;5.01;85.56
59043;BME280;44826;51.596;5.624;2023-02-16T08:22:12;102234.00;;;5.04;84.70
59043;BME280;44826;51.596;5.624;2023-02-16T08:24:37;102236.63;;;5.07;84.84
59043;BME280;44826;51.596;5.624;2023-02-16T08:27:04;102252.19;;;5.10;84.88
59043;BME280;44826;51.596;5.624;2023-02-16T08:29:30;102256.50;;;5.12;84.93
59043;BME280;44826;51.596;5.624;2023-02-16T08:31:56;102254.03;;;5.17;84.92
59043;BME280;44826;51.596;5.624;2023-02-16T08:34:23;102254.09;;;5.20;84.95
59043;BME280;44826;51.596;5.624;2023-02-16T08:36:55;102257.69;;;5.28;84.49
59043;BME280;44826;51.596;5.624;2023-02-16T08:39:24;102259.47;;;5.32;84.70
59043;BME280;44826;51.596;5.624;2023-02-16T08:41:50;102268.19;;;5.38;84.46
59043;BME280;44826;51.596;5.624;2023-02-16T08:44:16;102267.41;;;5.42;84.20
59043;BME280;44826;51.596;5.624;2023-02-16T08:46:43;102270.06;;;5.46;83.82
59043;BME280;44826;51.596;5.624;2023-02-16T08:49:10;102264.13;;;5.51;84.01
59043;BME280;44826;51.596;5.624;2023-02-16T08:51:40;102273.63;;;5.53;83.74
59043;BME280;44826;51.596;5.624;2023-02-16T08:54:06;102265.94;;;5.56;83.66
59043;BME280;44826;51.596;5.624;2023-02-16T08:56:32;102271.16;;;5.59;84.05
59043;BME280;44826;51.596;5.624;2023-02-16T08:58:58;102266.91;;;5.61;83.25
59043;BME280;44826;51.596;5.624;2023-02-16T09:01:24;102261.75;;;5.61;83.72
59043;BME280;44826;51.596;5.624;2023-02-16T09:03:50;102268.69;;;5.66;83.66
59043;BME280;44826;51.596;5.624;2023-02-16T09:06:17;102268.72;;;5.69;83.68
59043;BME280;44826;51.596;5.624;2023-02-16T09:08:52;102279.97;;;5.72;83.30
59043;BME280;44826;51.596;5.624;2023-02-16T09:11:19;102282.66;;;5.77;83.30
59043;BME280;44826;51.596;5.624;2023-02-16T09:13:45;102279.28;;;5.81;83.45
59043;BME280;44826;51.596;5.624;2023-02-16T09:16:16;102289.72;;;5.86;82.96
59043;BME280;44826;51.596;5.624;2023-02-16T09:18:43;102297.53;;;5.90;82.82
59043;BME280;44826;51.596;5.624;2023-02-16T09:21:14;102298.47;;;5.96;82.91
59043;BME280;44826;51.596;5.624;2023-02-16T09:23:41;102297.75;;;6.01;82.72
59043;BME280;44826;51.596;5.624;2023-02-16T09:26:07;102291.81;;;6.07;82.67
59043;BME280;44826;51.596;5.624;2023-02-16T09:28:34;102291.88;;;6.12;82.38
59043;BME280;44826;51.596;5.624;2023-02-16T09:31:10;102291.09;;;6.17;82.44
59043;BME280;44826;51.596;5.624;2023-02-16T09:33:36;102282.53;;;6.20;82.80
59043;BME280;44826;51.596;5.624;2023-02-16T09:36:07;102286.88;;;6.22;82.45
59043;BME280;44826;51.596;5.624;2023-02-16T09:38:33;102289.47;;;6.24;82.08
59043;BME280;44826;51.596;5.624;2023-02-16T09:41:04;102280.03;;;6.25;82.21
59043;BME280;44826;51.596;5.624;2023-02-16T09:43:39;102285.19;;;6.26;81.90
59043;BME280;44826;51.596;5.624;2023-02-16T09:46:10;102280.88;;;6.25;81.62
59043;BME280;44826;51.596;5.624;2023-02-16T09:48:42;102287.00;;;6.29;82.18
59043;BME280;44826;51.596;5.624;2023-02-16T09:51:15;102285.31;;;6.32;82.87
59043;BME280;44826;51.596;5.624;2023-02-16T09:53:42;102280.19;;;6.35;82.30
59043;BME280;44826;51.596;5.624;2023-02-16T09:58:57;102270.75;;;6.39;82.88
59043;BME280;44826;51.596;5.624;2023-02-16T10:01:42;102269.94;;;6.42;83.45
59043;BME280;44826;51.596;5.624;2023-02-16T10:07:10;102269.13;;;6.44;83.67
59043;BME280;44826;51.596;5.624;2023-02-16T10:09:44;102273.44;;;6.45;84.00
59043;BME280;44826;51.596;5.624;2023-02-16T10:12:16;102278.63;;;6.47;84.11
59043;BME280;44826;51.596;5.624;2023-02-16T10:14:54;102274.34;;;6.47;84.44
59043;BME280;44826;51.596;5.624;2023-02-16T10:17:33;102279.47;;;6.46;84.26
59043;BME280;44826;51.596;5.624;2023-02-16T10:20:13;102278.56;;;6.44;84.90
59043;BME280;44826;51.596;5.624;2023-02-16T10:25:33;102280.31;;;6.43;85.24
59043;BME280;44826;51.596;5.624;2023-02-16T10:28:18;102279.41;;;6.43;85.38
59043;BME280;44826;51.596;5.624;2023-02-16T10:30:59;102269.97;;;6.43;84.79
59043;BME280;44826;51.596;5.624;2023-02-16T10:35:57;102274.34;;;6.50;85.13
59043;BME280;44826;51.596;5.624;2023-02-16T10:38:32;102278.69;;;6.51;85.43
59043;BME280;44826;51.596;5.624;2023-02-16T10:41:25;102278.78;;;6.58;85.08
59043;BME280;44826;51.596;5.624;2023-02-16T10:43:56;102273.72;;;6.64;85.54
59043;BME280;44826;51.596;5.624;2023-02-16T10:46:24;102276.34;;;6.68;85.16
59043;BME280;44826;51.596;5.624;2023-02-16T10:48:52;102269.53;;;6.74;86.01
59043;BME280;44826;51.596;5.624;2023-02-16T10:51:18;102277.31;;;6.77;86.46
59043;BME280;44826;51.596;5.624;2023-02-16T10:53:48;102279.03;;;6.78;86.55
59043;BME280;44826;51.596;5.624;2023-02-16T10:56:27;102276.47;;;6.78;85.92
59043;BME280;44826;51.596;5.624;2023-02-16T10:58:58;102282.53;;;6.78;85.89
59043;BME280;44826;51.596;5.624;2023-02-16T11:01:36;102276.47;;;6.76;85.83
59043;BME280;44826;51.596;5.624;2023-02-16T11:04:02;102278.16;;;6.76;86.22
59043;BME280;44826;51.596;5.624;2023-02-16T11:06:28;102285.91;;;6.73;86.26
59043;BME280;44826;51.596;5.624;2023-02-16T11:08:56;102284.13;;;6.70;86.47
59043;BME280;44826;51.596;5.624;2023-02-16T11:11:27;102281.47;;;6.65;86.47
59043;BME280;44826;51.596;5.624;2023-02-16T11:14:02;102279.72;;;6.63;86.31
59043;BME280;44826;51.596;5.624;2023-02-16T11:16:28;102293.47;;;6.60;86.40
59043;BME280;44826;51.596;5.624;2023-02-16T11:19:12;102293.47;;;6.59;85.88
59043;BME280;44826;51.596;5.624;2023-02-16T11:21:46;102278.78;;;6.56;86.79
59043;BME280;44826;51.596;5.624;2023-02-16T11:27:02;102275.25;;;6.52;87.07
59043;BME280;44826;51.596;5.624;2023-02-16T11:29:28;102274.41;;;6.53;87.40
59043;BME280;44826;51.596;5.624;2023-02-16T11:31:54;102264.09;;;6.55;87.75
59043;BME280;44826;51.596;5.624;2023-02-16T11:34:52;102265.84;;;6.58;87.89
59043;BME280;44826;51.596;5.624;2023-02-16T11:37:24;102267.66;;;6.63;87.68
59043;BME280;44826;51.596;5.624;2023-02-16T11:39:54;102255.59;;;6.64;88.55
59043;BME280;44826;51.596;5.624;2023-02-16T11:42:43;102250.44;;;6.67;87.69
59043;BME280;44826;51.596;5.624;2023-02-16T11:45:33;102257.38;;;6.68;88.01
59043;BME280;44826;51.596;5.624;2023-02-16T11:48:09;102253.09;;;6.70;88.86
59043;BME280;44826;51.596;5.624;2023-02-16T11:50:37;102249.69;;;6.76;88.72
59043;BME280;44826;51.596;5.624;2023-02-16T11:55:44;102249.13;;;6.97;88.22
59043;BME280;44826;51.596;5.624;2023-02-16T11:58:25;102249.22;;;7.06;87.93
59043;BME280;44826;51.596;5.624;2023-02-16T12:01:23;102239.81;;;7.11;87.45
59043;BME280;44826;51.596;5.624;2023-02-16T12:04:04;102230.34;;;7.15;87.81
59043;BME280;44826;51.596;5.624;2023-02-16T12:06:42;102230.38;;;7.18;86.42
59043;BME280;44826;51.596;5.624;2023-02-16T12:12:02;102223.53;;;7.26;87.51
59043;BME280;44826;51.596;5.624;2023-02-16T12:17:55;102208.13;;;7.34;87.56
59043;BME280;44826;51.596;5.624;2023-02-16T12:22:58;102215.03;;;7.38;87.96
59043;BME280;44826;51.596;5.624;2023-02-16T12:25:53;102205.56;;;7.40;88.68
59043;BME280;44826;51.596;5.624;2023-02-16T12:28:39;102211.72;;;7.50;87.69
59043;BME280;44826;51.596;5.624;2023-02-16T12:31:30;102195.38;;;7.59;87.13
59043;BME280;44826;51.596;5.624;2023-02-16T12:34:26;102195.44;;;7.65;87.77
59043;BME280;44826;51.596;5.624;2023-02-16T12:37:03;102189.47;;;7.74;88.07
59043;BME280;44826;51.596;5.624;2023-02-16T12:42:20;102179.22;;;7.89;86.67
59043;BME280;44826;51.596;5.624;2023-02-16T12:44:53;102170.59;;;7.92;87.14
59043;BME280;44826;51.596;5.624;2023-02-16T12:50:19;102168.00;;;7.92;87.45
59043;BME280;44826;51.596;5.624;2023-02-16T12:52:51;102164.59;;;7.99;87.68
59043;BME280;44826;51.596;5.624;2023-02-16T13:00:44;102144.97;;;8.43;87.40
59043;BME280;44826;51.596;5.624;2023-02-16T13:05:57;102139.03;;;8.81;86.99
59043;BME280;44826;51.596;5.624;2023-02-16T13:13:35;102123.53;;;9.26;85.44
59043;BME280;44826;51.596;5.624;2023-02-16T13:16:14;102123.56;;;9.39;85.24
59043;BME280;44826;51.596;5.624;2023-02-16T13:18:42;102120.94;;;9.45;83.85
59043;BME280;44826;51.596;5.624;2023-02-16T13:21:23;102108.81;;;9.44;84.01
59043;BME280;44826;51.596;5.624;2023-02-16T13:24:05;102103.63;;;9.53;84.05
59043;BME280;44826;51.596;5.624;2023-02-16T13:26:48;102107.94;;;9.64;83.42
59043;BME280;44826;51.596;5.624;2023-02-16T13:29:55;102116.56;;;9.75;82.95
59043;BME280;44826;51.596;5.624;2023-02-16T13:32:40;102108.75;;;9.86;83.39
59043;BME280;44826;51.596;5.624;2023-02-16T13:41:05;102091.34;;;10.14;82.12
59043;BME280;44826;51.596;5.624;2023-02-16T13:43:39;102087.88;;;10.17;81.06
59043;BME280;44826;51.596;5.624;2023-02-16T13:46:36;102074.88;;;10.22;81.46
59043;BME280;44826;51.596;5.624;2023-02-16T13:49:02;102078.28;;;10.31;81.50
59043;BME280;44826;51.596;5.624;2023-02-16T13:51:40;102071.28;;;10.44;80.71
59043;BME280;44826;51.596;5.624;2023-02-16T13:54:20;102078.19;;;10.53;80.59
59043;BME280;44826;51.596;5.624;2023-02-16T13:56:46;102066.91;;;10.54;79.69
59043;BME280;44826;51.596;5.624;2023-02-16T14:01:41;102059.03;;;10.68;79.35
59043;BME280;44826;51.596;5.624;2023-02-16T14:04:13;102069.44;;;10.68;79.49
59043;BME280;44826;51.596;5.624;2023-02-16T14:12:12;102044.25;;;10.73;79.28
59043;BME280;44826;51.596;5.624;2023-02-16T14:20:24;102037.22;;;10.82;79.68
59043;BME280;44826;51.596;5.624;2023-02-16T14:22:52;102039.88;;;10.80;78.68
59043;BME280;44826;51.596;5.624;2023-02-16T14:27:55;102031.16;;;10.83;78.73
59043;BME280;44826;51.596;5.624;2023-02-16T14:30:27;102030.31;;;10.82;78.20
59043;BME280;44826;51.596;5.624;2023-02-16T14:33:19;102036.38;;;10.80;78.98
59043;BME280;44826;51.596;5.624;2023-02-16T14:36:05;102032.94;;;10.76;78.43
59043;BME280;44826;51.596;5.624;2023-02-16T14:38:34;102029.50;;;10.72;78.32
59043;BME280;44826;51.596;5.624;2023-02-16T14:41:03;102025.16;;;10.70;78.12
59043;BME280;44826;51.596;5.624;2023-02-16T14:46:20;102022.56;;;10.71;78.85
59043;BME280;44826;51.596;5.624;2023-02-16T14:51:48;102017.41;;;10.65;78.75